Time;durP1;ratioP1;P1;durP2;ratioP2;P2;SDS_P1;SDS_P2;PMS_P1;PMS_P2;Temp;Humidity;BMP_temperature;BMP_pressure;BME280_temperature;BME280_humidity;BME280_pressure;Samples;Min_cycle;Max_cycle;Signal;HPM_P1;HPM_P2
2023/08/15 00:01:21;;;;;;;;;;;;;;;29.81;56.91;100823.50;5100886;27;70214;-38
2023/08/15 00:03:51;;;;;;;5.38;4.95;;;;;;;29.91;57.09;100811.41;5100448;27;66356;-41
2023/08/15 00:06:22;;;;;;;5.00;4.30;;;;;;;30.12;56.04;100835.44;5101372;27;70054;-39
2023/08/15 00:08:55;;;;;;;8.50;5.75;;;;;;;30.17;61.39;100837.47;5102678;27;66154;-38
2023/08/15 00:11:25;;;;;;;10.85;6.32;;;;;;;30.04;63.62;100811.34;5099199;27;70296;-39
2023/08/15 00:13:56;;;;;;;7.05;6.13;;;;;;;30.23;69.89;100840.19;5101449;27;67101;-38
2023/08/15 00:16:26;;;;;;;12.77;6.35;;;;;;;30.26;69.72;100842.44;5102131;27;69297;-39
2023/08/15 00:18:56;;;;;;;7.35;5.57;;;;;;;30.28;71.25;100851.19;5094244;27;66521;-39
2023/08/15 00:21:26;;;;;;;10.18;5.85;;;;;;;30.32;71.58;100839.94;5091037;27;70443;-38
2023/08/15 00:23:57;;;;;;;6.90;5.53;;;;;;;30.20;70.67;100827.06;5090615;27;67206;-39
2023/08/15 00:26:27;;;;;;;13.65;6.47;;;;;;;30.38;73.18;100855.28;5089878;27;69458;-38
2023/08/15 00:28:58;;;;;;;6.55;5.28;;;;;;;30.41;73.55;100868.38;5095414;27;65666;-38
2023/08/15 00:31:29;;;;;;;;;;;;;;;30.19;74.72;100868.69;5095682;27;69907;-38
2023/08/15 00:34:00;;;;;;;10.10;6.15;;;;;;;30.45;73.29;100866.88;5095036;27;65647;-38
2023/08/15 00:36:31;;;;;;;8.38;5.45;;;;;;;30.55;70.26;100877.25;5095175;27;70454;-40
2023/08/15 00:39:02;;;;;;;9.38;5.60;;;;;;;30.51;74.19;100874.16;5096073;27;66615;-38
2023/08/15 00:41:33;;;;;;;17.05;6.25;;;;;;;30.51;72.82;100866.03;5093167;27;69822;-41
2023/08/15 00:44:04;;;;;;;11.50;5.22;;;;;;;30.53;72.09;100869.34;5088907;27;65961;-41
2023/08/15 00:46:35;;;;;;;9.38;5.82;;;;;;;30.72;68.32;100868.38;5095857;27;69261;-40
2023/08/15 00:49:08;;;;;;;7.15;4.70;;;;;;;30.76;67.38;100870.63;5094801;27;66409;-40
2023/08/15 00:51:40;;;;;;;14.73;5.53;;;;;;;30.75;66.63;100866.28;5094667;27;70511;-40
2023/08/15 00:54:10;;;;;;;10.38;4.45;;;;;;;30.82;66.02;100877.94;5073834;27;67290;-40
2023/08/15 00:56:40;;;;;;;9.38;4.32;;;;;;;30.43;65.65;100810.28;5094719;27;70179;-40
2023/08/15 00:59:10;;;;;;;10.57;4.55;;;;;;;30.92;65.84;100894.50;5092235;27;66594;-40
2023/08/15 01:01:42;;;;;;;5.68;4.45;;;;;;;30.96;65.61;100884.91;5096418;27;69530;-41
2023/08/15 01:04:14;;;;;;;6.38;4.63;;;;;;;30.94;64.95;100885.13;5095700;27;66890;-40
2023/08/15 01:06:44;;;;;;;8.10;3.95;;;;;;;31.01;64.66;100886.94;5072228;28;69972;-39
2023/08/15 01:09:14;;;;;;;7.13;4.22;;;;;;;31.03;64.94;100890.25;5087086;27;66469;-40
2023/08/15 01:12:17;;;;;;;7.22;4.07;;;;;;;30.45;64.64;100804.63;5062457;28;70201;-39
2023/08/15 01:14:51;;;;;;;;;;;;;;;30.66;65.67;100911.75;5087673;27;68057;-40
2023/08/15 01:17:34;;;;;;;4.07;3.42;;;;;;;30.47;64.91;100835.03;5087705;27;69248;-38
2023/08/15 01:20:09;;;;;;;7.07;4.32;;;;;;;31.02;64.87;100913.81;5091560;27;65412;-38
2023/08/15 01:22:44;;;;;;;7.35;3.97;;;;;;;30.60;64.72;100851.19;5100034;27;70106;-40
2023/08/15 01:25:14;;;;;;;4.82;3.80;;;;;;;31.19;64.84;100943.06;5080620;27;65435;-40
2023/08/15 01:27:46;;;;;;;6.60;4.05;;;;;;;31.22;64.85;100953.47;5092564;27;69954;-40
2023/08/15 01:30:21;;;;;;;6.80;3.95;;;;;;;31.22;64.50;100948.88;5080991;27;65508;-40
2023/08/15 01:33:11;;;;;;;5.60;3.75;;;;;;;31.26;64.36;100941.13;5077175;27;70172;-40
2023/08/15 01:35:47;;;;;;;9.95;4.30;;;;;;;30.89;64.63;100884.13;5069842;27;66475;-40
2023/08/15 01:38:28;;;;;;;4.43;3.45;;;;;;;30.78;64.26;100855.00;5084119;27;70432;-40
2023/08/15 01:41:01;;;;;;;5.10;4.25;;;;;;;30.89;64.41;100874.09;5090041;27;66519;-39
2023/08/15 01:43:33;;;;;;;4.13;3.83;;;;;;;31.24;64.62;100927.81;5095328;27;70640;-40
2023/08/15 01:46:05;;;;;;;4.32;4.00;;;;;;;30.87;64.22;100864.53;5084542;27;66890;-39
2023/08/15 01:48:43;;;;;;;5.30;3.70;;;;;;;31.28;64.44;100936.31;5077261;27;70132;-39
2023/08/15 01:51:13;;;;;;;5.75;3.58;;;;;;;31.42;64.38;100948.72;5072977;28;66085;-40
2023/08/15 01:53:43;;;;;;;5.05;3.33;;;;;;;31.40;64.31;100940.00;5067865;27;70416;-40
2023/08/15 01:56:13;;;;;;;4.40;3.50;;;;;;;31.36;64.34;100933.34;5095124;27;65543;-40
2023/08/15 01:58:43;;;;;;;4.45;3.25;;;;;;;31.45;64.16;100953.69;5083672;27;69575;-40
2023/08/15 02:01:14;;;;;;;3.33;3.13;;;;;;;31.52;64.09;100959.91;5100865;27;65931;-40
2023/08/15 02:03:44;;;;;;;3.70;3.40;;;;;;;31.54;64.02;100960.53;5089309;27;69645;-40
2023/08/15 02:06:14;;;;;;;5.07;3.55;;;;;;;31.54;64.14;100960.53;5099267;27;66557;-39
2023/08/15 02:08:44;;;;;;;7.03;3.20;;;;;;;31.60;64.00;100962.34;5093153;27;69912;-40
2023/08/15 02:11:14;;;;;;;4.82;3.55;;;;;;;31.62;63.62;100959.38;5087207;27;65785;-40
2023/08/15 02:13:44;;;;;;;3.08;2.78;;;;;;;31.65;64.07;100971.66;5072714;27;70364;-40
2023/08/15 02:16:18;;;;;;;5.53;3.50;;;;;;;31.69;63.73;100972.91;5079105;27;66935;-41
2023/08/15 02:18:48;;;;;;;4.55;3.15;;;;;;;31.69;64.10;100964.75;5072425;28;69565;-41
2023/08/15 02:21:18;;;;;;;4.50;2.70;;;;;;;31.73;63.70;100963.25;5085121;27;66568;-40
2023/08/15 02:23:48;;;;;;;3.80;3.40;;;;;;;31.51;63.61;100914.88;5085357;27;70474;-39
2023/08/15 02:26:18;;;;;;;3.88;3.15;;;;;;;31.77;63.66;100956.34;5068340;27;66314;-40
2023/08/15 02:28:48;;;;;;;3.92;3.25;;;;;;;31.79;63.46;100963.19;5091080;27;70368;-39
2023/08/15 02:31:21;;;;;;;4.57;2.80;;;;;;;31.82;63.54;100959.19;5083627;27;65829;-41
2023/08/15 02:33:52;;;;;;;3.92;3.10;;;;;;;31.47;63.40;100896.56;5090475;27;70211;-40
2023/08/15 02:36:22;;;;;;;3.38;2.75;;;;;;;31.87;63.46;100956.63;5081356;27;66484;-40
2023/08/15 02:38:52;;;;;;;3.67;2.80;;;;;;;31.87;63.37;100945.75;5094953;27;70734;-40
2023/08/15 02:41:23;;;;;;;7.63;3.03;;;;;;;31.85;63.21;100931.63;5080958;27;65931;-41
2023/08/15 02:43:53;;;;;;;3.37;2.73;;;;;;;31.93;63.21;100936.78;5081341;27;70226;-41
2023/08/15 02:46:25;;;;;;;3.08;2.63;;;;;;;31.97;63.00;100940.69;5082831;27;65979;-41
2023/08/15 02:48:55;;;;;;;2.88;2.47;;;;;;;31.98;63.30;100926.09;5074288;27;70337;-39
2023/08/15 02:51:25;;;;;;;6.13;3.15;;;;;;;32.01;63.19;100920.19;5084460;27;66654;-41
2023/08/15 02:53:55;;;;;;;3.47;2.58;;;;;;;32.04;63.04;100921.63;5088082;27;70117;-39
2023/08/15 02:56:25;;;;;;;2.92;2.72;;;;;;;31.86;62.81;100879.03;5086273;27;66856;-41
2023/08/15 02:58:55;;;;;;;2.60;2.40;;;;;;;32.10;62.71;100911.75;5088855;27;70847;-40
2023/08/15 03:01:25;;;;;;;4.43;2.95;;;;;;;32.04;62.88;100894.50;5086677;27;66128;-40
2023/08/15 03:03:55;;;;;;;2.70;2.50;;;;;;;32.10;62.68;100895.47;5092772;27;70460;-40
2023/08/15 03:06:26;;;;;;;3.10;2.50;;;;;;;32.17;62.73;100898.91;5080004;27;66947;-39
2023/08/15 03:08:57;;;;;;;2.30;2.10;;;;;;;32.18;62.63;100903.28;5093314;27;70752;-40
2023/08/15 03:11:29;;;;;;;4.97;2.30;;;;;;;32.20;62.72;100907.41;5092727;27;65665;-41
2023/08/15 03:13:59;;;;;;;3.28;2.53;;;;;;;32.22;62.70;100893.63;5098002;27;69945;-40
2023/08/15 03:16:29;;;;;;;3.13;2.53;;;;;;;32.25;62.67;100882.31;5079483;27;66350;-40
2023/08/15 03:19:00;;;;;;;4.15;2.63;;;;;;;32.28;62.55;100881.84;5081005;27;69966;-40
2023/08/15 03:21:30;;;;;;;3.95;2.35;;;;;;;32.31;62.51;100884.09;5067121;27;65599;-40
2023/08/15 03:24:00;;;;;;;4.55;2.88;;;;;;;32.24;62.33;100864.38;5080403;27;69236;-39
2023/08/15 03:26:31;;;;;;;2.75;2.30;;;;;;;32.34;62.30;100875.50;5081826;27;65717;-40
2023/08/15 03:29:01;;;;;;;3.95;2.80;;;;;;;32.36;62.13;100875.28;5083084;27;70283;-40
2023/08/15 03:31:33;;;;;;;3.20;2.13;;;;;;;32.31;62.28;100865.09;5097061;27;65485;-41
2023/08/15 03:34:04;;;;;;;3.15;2.85;;;;;;;32.39;62.19;100872.09;5083341;27;70572;-41
2023/08/15 03:36:35;;;;;;;3.05;2.75;;;;;;;32.39;62.13;100878.34;5082612;27;65833;-39
2023/08/15 03:39:06;;;;;;;4.95;3.00;;;;;;;32.41;62.09;100869.97;5082171;27;70039;-40
2023/08/15 03:41:36;;;;;;;3.75;2.20;;;;;;;32.44;62.08;100870.34;5081603;27;66037;-39
2023/08/15 03:44:06;;;;;;;3.25;2.95;;;;;;;32.35;61.97;100850.03;5093311;27;70282;-40
2023/08/15 03:46:36;;;;;;;4.10;2.92;;;;;;;32.38;62.18;100848.72;5082266;27;65717;-40
2023/08/15 03:49:06;;;;;;;8.73;3.08;;;;;;;32.51;61.96;100850.44;5092060;27;69910;-40
2023/08/15 03:51:37;;;;;;;3.10;2.78;;;;;;;32.53;62.10;100845.59;5099262;27;66369;-39
2023/08/15 03:54:18;;;;;;;3.63;3.30;;;;;;;32.54;62.05;100836.38;5079928;27;69838;-41
2023/08/15 03:59:55;;;;;;;5.28;2.72;;;;;;;32.57;61.71;100841.34;5090879;27;69294;-39
2023/08/15 04:02:25;;;;;;;6.40;2.67;;;;;;;32.59;61.83;100828.38;5072773;27;65542;-39
2023/08/15 04:04:55;;;;;;;9.88;2.50;;;;;;;32.63;61.75;100826.88;5084395;27;70262;-39
2023/08/15 04:07:25;;;;;;;2.63;2.28;;;;;;;32.64;61.76;100825.78;5066146;27;66014;-40
2023/08/15 04:09:56;;;;;;;3.10;2.75;;;;;;;32.63;61.67;100824.16;5078761;27;70446;-41
2023/08/15 04:12:26;;;;;;;3.28;2.53;;;;;;;32.68;61.87;100826.97;5080667;27;66072;-38
2023/08/15 04:14:57;;;;;;;2.60;2.40;;;;;;;32.66;61.65;100818.25;5081297;27;70186;-40
2023/08/15 04:17:27;;;;;;;4.93;2.33;;;;;;;32.69;61.42;100821.31;5081685;27;66596;-40
2023/08/15 04:19:57;;;;;;;3.10;2.70;;;;;;;32.72;61.66;100811.88;5087139;27;70226;-40
2023/08/15 04:22:27;;;;;;;3.60;2.60;;;;;;;32.72;61.43;100814.59;5082083;27;66045;-39
2023/08/15 04:24:58;;;;;;;2.50;2.30;;;;;;;32.75;61.44;100816.84;5077093;27;69932;-41
2023/08/15 04:27:28;;;;;;;3.00;2.70;;;;;;;32.23;61.75;100710.72;5090860;27;66726;-39
2023/08/15 04:29:58;;;;;;;2.90;2.58;;;;;;;32.79;61.32;100800.88;5079132;27;70834;-40
2023/08/15 04:32:30;;;;;;;3.03;2.42;;;;;;;32.80;61.69;100797.94;5073400;27;66605;-39
2023/08/15 04:35:00;;;;;;;3.00;2.38;;;;;;;32.82;61.52;100790.41;5077863;27;70626;-40
2023/08/15 04:37:31;;;;;;;3.00;2.40;;;;;;;32.83;61.57;100794.75;5086284;27;65877;-38
2023/08/15 04:40:01;;;;;;;3.97;2.50;;;;;;;32.75;61.27;100769.84;5080081;27;70065;-40
2023/08/15 04:42:32;;;;;;;3.03;2.42;;;;;;;32.84;61.29;100782.81;5077222;27;65781;-40
2023/08/15 04:45:02;;;;;;;5.47;2.28;;;;;;;32.87;61.43;100776.91;5081745;27;69973;-41
2023/08/15 04:47:33;;;;;;;2.72;2.47;;;;;;;32.89;61.37;100776.69;5092595;27;66394;-40
2023/08/15 04:50:04;;;;;;;3.73;2.30;;;;;;;32.83;61.37;100772.19;5084414;27;70432;-42
2023/08/15 04:52:34;;;;;;;3.70;1.92;;;;;;;32.57;61.27;100724.59;5078745;27;66080;-40
2023/08/15 04:55:05;;;;;;;2.53;2.05;;;;;;;32.74;61.16;100744.56;5085521;27;69644;-39
2023/08/15 04:57:35;;;;;;;2.33;2.00;;;;;;;32.92;61.30;100771.59;5077455;27;66659;-40
2023/08/15 05:00:08;;;;;;;4.22;2.30;;;;;;;32.95;61.26;100773.00;5091218;27;69515;-40
2023/08/15 05:02:39;;;;;;;3.10;2.20;;;;;;;32.97;61.18;100751.06;5074306;28;66749;-39
2023/08/15 05:05:10;;;;;;;2.63;2.00;;;;;;;32.98;61.18;100744.53;5083465;27;69958;-39
2023/08/15 05:07:41;;;;;;;6.40;2.42;;;;;;;32.85;61.22;100732.06;5087239;27;66049;-40
2023/08/15 05:10:11;;;;;;;3.33;1.73;;;;;;;33.01;61.08;100749.53;5074682;27;70057;-40
2023/08/15 05:12:44;;;;;;;2.83;2.28;;;;;;;32.86;60.86;100706.53;5081553;27;65872;-41
2023/08/15 05:15:14;;;;;;;2.47;2.13;;;;;;;32.89;61.25;100714.19;5076529;27;70608;-40
2023/08/15 05:17:48;;;;;;;2.95;2.40;;;;;;;33.04;60.98;100721.88;5092060;27;65965;-40
2023/08/15 05:20:18;;;;;;;2.28;1.85;;;;;;;33.06;60.97;100714.31;5076913;27;70522;-40
2023/08/15 05:22:48;;;;;;;3.72;2.08;;;;;;;33.06;60.83;100725.19;5081643;27;66773;-41
2023/08/15 05:25:20;;;;;;;2.35;1.83;;;;;;;33.07;61.05;100705.09;5078779;27;72047;-40
2023/08/15 05:27:50;;;;;;;2.35;1.65;;;;;;;33.08;60.80;100701.31;5077021;27;66369;-40
2023/08/15 05:30:21;;;;;;;2.05;1.85;;;;;;;33.12;60.89;100686.19;5082242;27;70554;-39
2023/08/15 05:32:52;;;;;;;2.30;1.70;;;;;;;33.13;60.84;100685.13;5083869;27;65993;-43
2023/08/15 05:35:22;;;;;;;2.08;1.50;;;;;;;33.12;60.80;100667.16;5095754;27;70409;-40
2023/08/15 05:37:53;;;;;;;3.97;2.15;;;;;;;33.18;60.76;100662.66;5087764;27;65939;-40
2023/08/15 05:40:26;;;;;;;1.55;1.35;;;;;;;33.09;60.77;100654.03;5085101;27;69862;-40
2023/08/15 05:42:56;;;;;;;;;;;;;;;32.88;61.60;100659.03;5067277;27;66512;-39
2023/08/15 05:45:26;;;;;;;1.73;1.63;;;;;;;33.07;60.90;100623.56;5091302;27;70891;-42
2023/08/15 05:47:56;;;;;;;2.70;2.03;;;;;;;33.23;60.88;100636.38;5089852;27;66111;-40
2023/08/15 05:50:27;;;;;;;2.63;1.95;;;;;;;33.11;60.76;100613.88;5097046;27;70299;-40
2023/08/15 05:52:57;;;;;;;2.15;1.30;;;;;;;33.25;60.39;100619.84;5090965;27;66198;-40
2023/08/15 05:55:27;;;;;;;2.00;1.52;;;;;;;33.25;60.50;100619.84;5100714;27;70544;-40
2023/08/15 05:57:57;;;;;;;2.85;1.90;;;;;;;33.32;60.61;100625.94;5094247;27;65222;-42
2023/08/15 06:00:27;;;;;;;2.55;1.70;;;;;;;33.27;60.55;100610.38;5086290;27;69548;-40
2023/08/15 06:02:57;;;;;;;1.73;1.40;;;;;;;33.42;60.20;100619.88;5092789;27;65301;-40
2023/08/15 06:05:30;;;;;;;2.75;1.85;;;;;;;32.85;60.13;100536.44;5088593;27;70213;-39
2023/08/15 06:08:00;;;;;;;2.47;1.77;;;;;;;33.45;59.80;100616.69;5076335;27;66769;-39
2023/08/15 06:10:30;;;;;;;2.40;2.00;;;;;;;33.51;60.35;100623.84;5086479;27;69203;-41
2023/08/15 06:13:01;;;;;;;5.00;1.77;;;;;;;33.53;60.26;100621.75;5092026;27;66331;-41
2023/08/15 06:15:31;;;;;;;2.47;1.83;;;;;;;33.54;60.04;100626.09;5090758;27;69544;-40
2023/08/15 06:18:01;;;;;;;2.08;1.70;;;;;;;33.58;59.89;100630.00;5094578;27;66810;-40
2023/08/15 06:20:31;;;;;;;3.08;1.92;;;;;;;33.61;59.74;100624.06;5096335;27;70539;-40
2023/08/15 06:23:01;;;;;;;3.58;1.83;;;;;;;33.62;59.50;100620.28;5084590;27;66354;-39
2023/08/15 06:25:31;;;;;;;2.10;1.90;;;;;;;33.61;59.89;100615.09;5089963;27;70526;-41
2023/08/15 06:28:02;;;;;;;2.72;2.10;;;;;;;33.30;59.72;100563.69;5093650;27;66113;-38
2023/08/15 06:30:32;;;;;;;4.38;1.63;;;;;;;33.76;59.66;100627.03;5094907;27;70848;-39
2023/08/15 06:33:02;;;;;;;2.30;2.10;;;;;;;33.75;59.24;100614.53;5087680;27;66369;-39
2023/08/15 06:35:32;;;;;;;3.13;1.90;;;;;;;33.48;59.36;100553.66;5101135;27;70203;-41
2023/08/15 06:38:03;;;;;;;2.97;2.17;;;;;;;33.89;59.17;100608.75;5101555;27;66249;-40
2023/08/15 06:40:33;;;;;;;2.40;2.08;;;;;;;33.89;59.27;100603.31;5100191;27;70477;-41
2023/08/15 06:43:03;;;;;;;2.88;2.47;;;;;;;33.86;58.99;100587.50;5071664;27;66495;-42
2023/08/15 06:45:37;;;;;;;2.63;2.08;;;;;;;33.99;59.18;100598.88;5094132;27;70147;-42
2023/08/15 06:48:08;;;;;;;3.40;2.60;;;;;;;34.00;58.93;100594.25;5101652;27;66115;-41
2023/08/15 06:50:38;;;;;;;3.03;2.50;;;;;;;33.98;59.01;100578.16;5094192;27;70912;-40
2023/08/15 06:53:08;;;;;;;2.78;2.47;;;;;;;34.04;59.14;100584.50;5101984;27;65720;-39
2023/08/15 06:55:38;;;;;;;3.60;1.92;;;;;;;34.07;58.94;100583.22;5096435;27;70256;-40
2023/08/15 06:58:08;;;;;;;2.90;2.60;;;;;;;34.06;58.76;100576.94;5098747;27;65882;-41
2023/08/15 07:00:38;;;;;;;2.63;2.42;;;;;;;34.11;59.13;100568.88;5080577;28;69946;-40
2023/08/15 07:03:09;;;;;;;2.95;2.63;;;;;;;33.97;59.18;100545.75;5090975;27;65552;-40
2023/08/15 07:05:44;;;;;;;5.40;2.78;;;;;;;34.18;58.93;100572.22;5092843;27;70541;-41
2023/08/15 07:08:14;;;;;;;3.05;2.75;;;;;;;34.05;58.60;100558.97;5093533;27;66281;-41
2023/08/15 07:10:44;;;;;;;2.85;2.65;;;;;;;34.20;58.40;100556.47;5083650;27;69997;-40
2023/08/15 07:13:14;;;;;;;3.15;2.90;;;;;;;34.27;58.65;100564.47;5086939;27;65565;-39
2023/08/15 07:15:44;;;;;;;2.80;2.60;;;;;;;33.90;58.52;100501.56;5092740;27;70364;-39
2023/08/15 07:18:15;;;;;;;6.13;3.10;;;;;;;34.33;58.37;100570.81;5089068;27;66596;-40
2023/08/15 07:20:44;;;;;;;3.58;3.28;;;;;;;34.30;58.25;100554.94;5085700;27;71154;-40
2023/08/15 07:23:15;;;;;;;7.07;3.53;;;;;;;34.39;58.50;100572.53;5088882;27;66208;-40
2023/08/15 07:25:45;;;;;;;3.78;3.42;;;;;;;34.44;58.55;100557.06;5090534;27;68875;-40
2023/08/15 07:28:15;;;;;;;3.75;3.13;;;;;;;34.35;58.10;100535.97;5082922;27;66379;-41
2023/08/15 07:30:45;;;;;;;3.25;2.88;;;;;;;34.51;58.30;100556.06;5091590;27;70217;-40
2023/08/15 07:33:16;;;;;;;3.72;2.95;;;;;;;34.54;58.25;100556.34;5084315;27;66044;-40
2023/08/15 07:35:46;;;;;;;2.97;2.30;;;;;;;34.56;58.40;100550.69;5094251;27;70516;-42
2023/08/15 07:38:17;;;;;;;3.00;2.60;;;;;;;34.60;58.11;100554.56;5098116;27;66196;-39
2023/08/15 07:40:48;;;;;;;3.60;3.30;;;;;;;34.62;57.73;100555.94;5095724;27;69765;-40
2023/08/15 07:43:18;;;;;;;4.63;3.40;;;;;;;34.29;58.11;100485.25;5080426;27;66530;-40
2023/08/15 07:45:48;;;;;;;3.47;2.83;;;;;;;34.60;57.66;100530.88;5091478;27;69868;-40
2023/08/15 07:48:18;;;;;;;3.22;2.47;;;;;;;34.69;57.87;100548.41;5094773;27;65316;-40
2023/08/15 07:50:48;;;;;;;3.67;3.33;;;;;;;34.70;57.46;100549.25;5092830;27;70212;-40
2023/08/15 07:53:18;;;;;;;5.53;3.22;;;;;;;34.56;57.95;100516.13;5085915;27;65989;-40
2023/08/15 07:55:48;;;;;;;3.03;2.70;;;;;;;34.60;58.03;100517.28;5094851;27;70656;-39
2023/08/15 07:58:18;;;;;;;3.58;3.05;;;;;;;34.72;57.62;100532.66;5096047;27;65911;-40
2023/08/15 08:00:49;;;;;;;3.13;2.88;;;;;;;34.72;57.73;100541.66;5089455;27;70205;-39
2023/08/15 08:03:18;;;;;;;3.70;3.35;;;;;;;34.74;57.49;100525.03;5086015;27;66394;-39
2023/08/15 08:05:49;;;;;;;8.07;3.33;;;;;;;34.78;57.75;100523.44;5069461;27;70197;-40
2023/08/15 08:08:19;;;;;;;3.40;3.10;;;;;;;34.80;57.34;100504.91;5096376;27;65868;-41
2023/08/15 08:10:49;;;;;;;3.08;2.83;;;;;;;34.82;57.58;100510.94;5082364;27;70010;-40
2023/08/15 08:13:20;;;;;;;3.75;3.00;;;;;;;34.63;57.44;100467.72;5084536;27;66279;-40
2023/08/15 08:15:50;;;;;;;3.17;2.88;;;;;;;34.86;57.69;100498.47;5087332;27;70587;-41
2023/08/15 08:18:20;;;;;;;3.97;3.13;;;;;;;34.88;57.37;100496.28;5082889;27;66028;-40
2023/08/15 08:20:50;;;;;;;3.70;2.92;;;;;;;34.89;57.55;100503.41;5080019;27;70289;-40
2023/08/15 08:23:20;;;;;;;7.35;3.03;;;;;;;34.91;57.04;100491.16;5084479;27;65752;-41
2023/08/15 08:25:51;;;;;;;3.58;2.72;;;;;;;34.92;56.95;100492.81;5078249;27;69668;-41
2023/08/15 08:28:21;;;;;;;2.33;2.13;;;;;;;34.92;56.97;100483.81;5093799;27;65262;-40
2023/08/15 08:30:51;;;;;;;5.15;3.20;;;;;;;34.93;57.21;100486.25;5069932;27;71476;-40
2023/08/15 08:33:22;;;;;;;3.17;2.47;;;;;;;34.93;57.15;100480.00;5084882;27;66589;-39
2023/08/15 08:35:52;;;;;;;4.63;2.10;;;;;;;34.81;57.27;100457.53;5086487;27;70568;-39
2023/08/15 08:38:22;;;;;;;2.60;2.40;;;;;;;34.83;57.38;100460.84;5088346;27;65718;-39
2023/08/15 08:40:56;;;;;;;2.75;2.55;;;;;;;34.86;57.15;100461.13;5096281;27;69846;-39
2023/08/15 08:43:28;;;;;;;2.90;2.05;;;;;;;34.87;56.84;100456.50;5093035;27;66694;-40
2023/08/15 08:45:59;;;;;;;;;;;;;;;34.74;57.38;100484.97;5099483;27;70439;-42
2023/08/15 08:48:32;;;;;;;4.95;2.67;;;;;;;34.69;57.39;100444.91;5095468;27;65858;-40
2023/08/15 08:51:06;;;;;;;3.55;2.72;;;;;;;34.99;57.17;100487.13;5082994;27;69520;-41
2023/08/15 08:53:36;;;;;;;4.97;2.53;;;;;;;35.02;57.26;100491.25;5087025;27;66043;-40
2023/08/15 08:56:07;;;;;;;4.63;2.22;;;;;;;35.03;56.67;100501.09;5086605;27;69854;-40
2023/08/15 08:58:42;;;;;;;8.80;2.57;;;;;;;34.62;56.50;100441.53;5092065;27;67380;-39
2023/08/15 09:01:13;;;;;;;4.38;2.60;;;;;;;34.82;57.10;100470.06;5083518;27;69333;-40
2023/08/15 09:03:43;;;;;;;2.80;2.60;;;;;;;34.86;57.07;100487.56;5084715;27;66034;-41
2023/08/15 09:06:13;;;;;;;2.42;2.22;;;;;;;34.93;57.09;100493.63;5085949;27;70309;-42
2023/08/15 09:08:44;;;;;;;2.70;2.40;;;;;;;34.97;56.87;100511.13;5089170;27;66613;-40
2023/08/15 09:11:13;;;;;;;6.10;2.65;;;;;;;34.84;57.30;100500.63;5092565;27;70068;-40
2023/08/15 09:13:48;;;;;;;2.97;2.35;;;;;;;34.92;57.21;100520.06;5088694;27;66521;-40
2023/08/15 09:16:18;;;;;;;3.67;2.58;;;;;;;34.94;56.72;100511.63;5084946;27;70289;-40
2023/08/15 09:18:48;;;;;;;3.00;2.70;;;;;;;34.95;57.45;100524.19;5080743;27;66540;-39
2023/08/15 09:21:18;;;;;;;2.50;2.30;;;;;;;34.94;57.08;100528.00;5092756;27;69500;-40
2023/08/15 09:23:51;;;;;;;3.60;2.45;;;;;;;34.88;57.49;100512.66;5098465;27;66520;-40
2023/08/15 09:26:21;;;;;;;2.90;2.60;;;;;;;34.94;57.54;100511.63;5095431;27;70850;-41
2023/08/15 09:28:51;;;;;;;2.80;2.60;;;;;;;34.84;57.44;100487.00;5089017;27;66357;-40
2023/08/15 09:31:23;;;;;;;3.15;2.85;;;;;;;34.91;57.64;100507.53;5091368;27;70605;-41
2023/08/15 09:33:54;;;;;;;3.67;2.40;;;;;;;34.91;57.51;100523.88;5084309;27;66106;-40
2023/08/15 09:36:24;;;;;;;3.83;2.53;;;;;;;34.88;57.17;100513.50;5090069;27;69752;-39
2023/08/15 09:38:58;;;;;;;3.47;2.92;;;;;;;34.87;57.65;100521.91;5096763;27;65729;-42
2023/08/15 09:41:29;;;;;;;4.45;2.63;;;;;;;34.85;57.16;100519.47;5092831;27;68876;-41
2023/08/15 09:44:17;;;;;;;2.88;2.58;;;;;;;34.87;57.67;100522.72;5090509;27;66106;-41
2023/08/15 09:46:48;;;;;;;2.53;2.22;;;;;;;34.86;57.71;100520.28;5086113;27;70662;-42
2023/08/15 09:49:19;;;;;;;3.25;2.60;;;;;;;34.84;57.22;100523.25;5073487;27;66749;-40
2023/08/15 09:51:49;;;;;;;2.50;2.30;;;;;;;34.84;57.40;100528.69;5090427;27;70649;-43
2023/08/15 09:54:21;;;;;;;6.07;2.72;;;;;;;34.84;57.53;100525.16;5089431;27;66121;-41
2023/08/15 09:56:53;;;;;;;2.60;2.40;;;;;;;34.84;57.22;100523.25;5082761;27;69449;-40
2023/08/15 09:59:24;;;;;;;5.95;2.78;;;;;;;34.83;57.35;100515.34;5091960;27;66597;-40
2023/08/15 10:01:55;;;;;;;3.10;2.55;;;;;;;34.78;57.38;100518.81;5090351;27;70067;-39
2023/08/15 10:04:31;;;;;;;3.05;2.83;;;;;;;34.79;57.83;100522.38;5080089;27;66443;-40
2023/08/15 10:07:02;;;;;;;2.60;2.40;;;;;;;34.83;57.47;100539.88;5088966;27;70537;-40
2023/08/15 10:09:53;;;;;;;2.50;2.30;;;;;;;34.69;57.28;100532.06;5090184;27;66251;-41
2023/08/15 10:12:24;;;;;;;2.95;2.75;;;;;;;34.81;57.85;100553.72;5088474;27;70552;-41
2023/08/15 10:14:56;;;;;;;3.05;2.20;;;;;;;34.29;57.88;100477.06;5092177;27;66427;-41
2023/08/15 10:17:29;;;;;;;3.25;2.33;;;;;;;34.19;57.56;100467.72;5089810;27;69634;-40
2023/08/15 10:20:13;;;;;;;2.30;2.10;;;;;;;34.40;58.05;100515.06;5086541;27;66385;-41
2023/08/15 10:22:43;;;;;;;4.40;2.60;;;;;;;34.78;58.04;100577.94;5083095;27;69456;-43
2023/08/15 10:25:28;;;;;;;2.72;2.50;;;;;;;34.66;58.27;100584.34;5079468;27;65681;-39
2023/08/15 10:27:58;;;;;;;2.95;2.47;;;;;;;34.72;57.51;100573.53;5083303;27;70333;-40
2023/08/15 10:30:33;;;;;;;3.28;2.15;;;;;;;34.75;57.86;100590.16;5086894;27;66299;-44
2023/08/15 10:33:13;;;;;;;3.72;2.45;;;;;;;34.29;59.17;100588.69;5087230;27;69178;-42
2023/08/15 10:35:52;;;;;;;2.97;2.50;;;;;;;34.18;60.18;100590.44;5097402;27;65508;-43
2023/08/15 10:38:23;;;;;;;3.33;2.70;;;;;;;34.06;61.26;100589.75;5099690;27;69848;-40
2023/08/15 10:41:01;;;;;;;3.03;2.55;;;;;;;34.00;61.16;100600.50;5094514;27;66011;-42
2023/08/15 10:43:35;;;;;;;2.58;2.38;;;;;;;33.88;61.83;100597.06;5098434;27;70231;-39
2023/08/15 10:46:07;;;;;;;3.08;2.88;;;;;;;33.84;62.70;100584.19;5095383;27;66259;-42
2023/08/15 10:48:37;;;;;;;;;;;;;;;33.66;63.28;100605.13;5091062;27;70626;-41
2023/08/15 10:51:23;;;;;;;;;;;;;;;33.65;63.51;100624.41;5067518;27;66495;-41
2023/08/15 10:53:59;;;;;;;3.50;3.05;;;;;;;33.87;62.85;100628.03;5093705;27;69948;-39
2023/08/15 10:56:34;;;;;;;3.72;3.42;;;;;;;33.85;62.92;100618.47;5058990;27;66058;-38
2023/08/15 10:59:07;;;;;;;4.20;3.10;;;;;;;33.34;63.29;100543.06;5092979;27;70453;-39
2023/08/15 11:01:39;;;;;;;3.10;2.83;;;;;;;33.81;63.11;100608.09;5091339;27;66116;-41
2023/08/15 11:04:15;;;;;;;5.97;3.38;;;;;;;33.81;63.46;100618.97;5091880;27;69175;-42
2023/08/15 11:06:48;;;;;;;3.30;3.00;;;;;;;33.73;63.11;100600.34;5093944;27;64780;-42
2023/08/15 11:09:18;;;;;;;5.18;3.83;;;;;;;33.77;63.19;100623.28;5091245;27;70019;-39
2023/08/15 11:11:48;;;;;;;6.82;3.65;;;;;;;33.78;63.44;100624.09;5077277;28;67101;-41
2023/08/15 11:14:19;;;;;;;5.55;3.72;;;;;;;33.76;63.45;100629.75;5099263;27;69534;-41
2023/08/15 11:16:50;;;;;;;3.88;3.63;;;;;;;33.62;63.55;100601.22;5081591;27;65166;-42
2023/08/15 11:19:20;;;;;;;3.58;3.20;;;;;;;33.68;63.28;100611.13;5087549;27;70581;-41
2023/08/15 11:21:50;;;;;;;3.38;3.17;;;;;;;33.73;63.53;100627.53;5098797;27;65370;-41
2023/08/15 11:24:20;;;;;;;4.30;3.53;;;;;;;33.69;63.37;100625.56;5094525;27;70169;-41
2023/08/15 11:26:51;;;;;;;3.58;3.28;;;;;;;33.65;63.25;100624.41;5094925;27;65936;-41
2023/08/15 11:29:21;;;;;;;5.47;3.35;;;;;;;33.66;63.64;100637.78;5093733;27;70311;-41
2023/08/15 11:31:54;;;;;;;3.35;3.08;;;;;;;33.85;62.46;100648.41;5086327;27;66217;-39
2023/08/15 11:34:25;;;;;;;11.00;3.83;;;;;;;33.73;63.65;100643.84;5098088;27;69137;-41
2023/08/15 11:37:18;;;;;;;15.75;4.03;;;;;;;33.62;64.08;100638.50;5093500;27;66276;-43
2023/08/15 11:39:54;;;;;;;14.70;3.28;;;;;;;33.28;64.45;100590.28;5092060;27;69524;-41
2023/08/15 11:42:25;;;;;;;7.15;3.20;;;;;;;33.55;64.53;100642.19;5093097;27;65791;-39
2023/08/15 11:45:02;;;;;;;24.95;3.83;;;;;;;33.16;65.11;100573.22;5094966;27;69790;-41
2023/08/15 11:47:32;;;;;;;16.08;4.03;;;;;;;33.64;64.35;100650.78;5093522;27;65499;-40
2023/08/15 11:50:09;;;;;;;5.95;3.25;;;;;;;33.41;63.38;100624.50;5088177;27;70964;-40